sensor_id;sensor_type;location;lat;lon;timestamp;temperature;humidity
15103;DHT22;7652;53.584;9.998;2023-06-14T00:00:23;16.60;99.90
15103;DHT22;7652;53.584;9.998;2023-06-14T00:03:46;16.60;99.90
15103;DHT22;7652;53.584;9.998;2023-06-14T00:07:08;16.50;99.90
15103;DHT22;7652;53.584;9.998;2023-06-14T00:10:33;16.50;99.90
15103;DHT22;7652;53.584;9.998;2023-06-14T00:13:55;16.50;99.90
15103;DHT22;7652;53.584;9.998;2023-06-14T00:17:17;16.40;99.90
15103;DHT22;7652;53.584;9.998;2023-06-14T00:20:39;16.50;99.90
15103;DHT22;7652;53.584;9.998;2023-06-14T00:24:04;16.50;99.90
15103;DHT22;7652;53.584;9.998;2023-06-14T00:27:26;16.50;99.90
15103;DHT22;7652;53.584;9.998;2023-06-14T00:30:47;16.50;99.90
15103;DHT22;7652;53.584;9.998;2023-06-14T00:34:08;16.50;99.90
15103;DHT22;7652;53.584;9.998;2023-06-14T00:37:31;16.50;99.90
15103;DHT22;7652;53.584;9.998;2023-06-14T00:40:52;16.50;99.90
15103;DHT22;7652;53.584;9.998;2023-06-14T00:44:16;16.40;99.90
15103;DHT22;7652;53.584;9.998;2023-06-14T00:47:38;16.40;99.90
15103;DHT22;7652;53.584;9.998;2023-06-14T00:51:02;16.30;99.90
15103;DHT22;7652;53.584;9.998;2023-06-14T00:54:25;16.30;99.90
15103;DHT22;7652;53.584;9.998;2023-06-14T00:57:47;16.20;99.90
15103;DHT22;7652;53.584;9.998;2023-06-14T01:01:10;16.20;99.90
15103;DHT22;7652;53.584;9.998;2023-06-14T01:04:32;16.20;99.90
15103;DHT22;7652;53.584;9.998;2023-06-14T01:08:05;16.10;99.90
15103;DHT22;7652;53.584;9.998;2023-06-14T01:11:37;16.20;99.90
15103;DHT22;7652;53.584;9.998;2023-06-14T01:15:01;16.20;99.90
15103;DHT22;7652;53.584;9.998;2023-06-14T01:18:23;16.10;99.90
15103;DHT22;7652;53.584;9.998;2023-06-14T01:21:46;16.10;99.90
15103;DHT22;7652;53.584;9.998;2023-06-14T01:25:12;16.10;99.90
15103;DHT22;7652;53.584;9.998;2023-06-14T01:28:34;16.00;99.90
15103;DHT22;7652;53.584;9.998;2023-06-14T01:31:56;16.00;99.90
15103;DHT22;7652;53.584;9.998;2023-06-14T01:35:18;15.90;99.90
15103;DHT22;7652;53.584;9.998;2023-06-14T01:38:40;15.90;99.90
15103;DHT22;7652;53.584;9.998;2023-06-14T01:42:06;15.90;99.90
15103;DHT22;7652;53.584;9.998;2023-06-14T01:45:28;16.00;99.90
15103;DHT22;7652;53.584;9.998;2023-06-14T01:48:50;15.90;99.90
15103;DHT22;7652;53.584;9.998;2023-06-14T01:52:12;15.90;99.90
15103;DHT22;7652;53.584;9.998;2023-06-14T01:55:33;15.90;99.90
15103;DHT22;7652;53.584;9.998;2023-06-14T01:59:00;16.00;99.90
15103;DHT22;7652;53.584;9.998;2023-06-14T02:02:21;16.00;99.90
15103;DHT22;7652;53.584;9.998;2023-06-14T02:05:43;16.00;99.90
15103;DHT22;7652;53.584;9.998;2023-06-14T02:09:04;15.90;99.90
15103;DHT22;7652;53.584;9.998;2023-06-14T02:12:25;15.80;99.90
15103;DHT22;7652;53.584;9.998;2023-06-14T02:15:48;15.70;99.90
15103;DHT22;7652;53.584;9.998;2023-06-14T02:19:13;15.60;99.90
15103;DHT22;7652;53.584;9.998;2023-06-14T02:22:34;15.60;99.90
15103;DHT22;7652;53.584;9.998;2023-06-14T02:25:56;15.40;99.90
15103;DHT22;7652;53.584;9.998;2023-06-14T02:29:17;15.40;99.90
15103;DHT22;7652;53.584;9.998;2023-06-14T02:32:40;15.40;99.90
15103;DHT22;7652;53.584;9.998;2023-06-14T02:36:03;15.40;99.90
15103;DHT22;7652;53.584;9.998;2023-06-14T02:39:25;15.50;99.90
15103;DHT22;7652;53.584;9.998;2023-06-14T02:42:47;15.50;99.90
15103;DHT22;7652;53.584;9.998;2023-06-14T02:46:08;15.30;99.90
15103;DHT22;7652;53.584;9.998;2023-06-14T02:49:31;15.20;99.90
15103;DHT22;7652;53.584;9.998;2023-06-14T02:52:52;15.20;99.90
15103;DHT22;7652;53.584;9.998;2023-06-14T02:56:16;15.20;99.90
15103;DHT22;7652;53.584;9.998;2023-06-14T02:59:39;15.20;99.90
15103;DHT22;7652;53.584;9.998;2023-06-14T03:03:01;15.20;99.90
15103;DHT22;7652;53.584;9.998;2023-06-14T03:06:24;15.10;99.90
15103;DHT22;7652;53.584;9.998;2023-06-14T03:09:45;15.20;99.90
15103;DHT22;7652;53.584;9.998;2023-06-14T03:13:09;15.20;99.90
15103;DHT22;7652;53.584;9.998;2023-06-14T03:16:30;15.10;99.90
15103;DHT22;7652;53.584;9.998;2023-06-14T03:19:52;15.10;99.90
15103;DHT22;7652;53.584;9.998;2023-06-14T03:23:15;15.00;99.90
15103;DHT22;7652;53.584;9.998;2023-06-14T03:26:36;15.00;99.90
15103;DHT22;7652;53.584;9.998;2023-06-14T03:29:58;15.00;99.90
15103;DHT22;7652;53.584;9.998;2023-06-14T03:33:20;15.10;99.90
15103;DHT22;7652;53.584;9.998;2023-06-14T03:36:41;15.10;99.90
15103;DHT22;7652;53.584;9.998;2023-06-14T03:40:05;15.20;99.90
15103;DHT22;7652;53.584;9.998;2023-06-14T03:43:27;15.30;99.90
15103;DHT22;7652;53.584;9.998;2023-06-14T03:46:50;15.40;99.90
15103;DHT22;7652;53.584;9.998;2023-06-14T03:50:12;15.30;99.90
15103;DHT22;7652;53.584;9.998;2023-06-14T03:53:34;15.40;99.90
15103;DHT22;7652;53.584;9.998;2023-06-14T03:57:05;15.50;99.90
15103;DHT22;7652;53.584;9.998;2023-06-14T04:00:27;15.40;99.90
15103;DHT22;7652;53.584;9.998;2023-06-14T04:03:48;15.40;99.90
15103;DHT22;7652;53.584;9.998;2023-06-14T04:07:10;15.50;99.90
15103;DHT22;7652;53.584;9.998;2023-06-14T04:10:32;15.50;99.90
15103;DHT22;7652;53.584;9.998;2023-06-14T04:13:54;15.60;99.90
15103;DHT22;7652;53.584;9.998;2023-06-14T04:17:16;15.50;99.90
15103;DHT22;7652;53.584;9.998;2023-06-14T04:20:38;15.70;99.90
15103;DHT22;7652;53.584;9.998;2023-06-14T04:24:00;15.70;99.90
15103;DHT22;7652;53.584;9.998;2023-06-14T04:27:23;15.70;99.90
15103;DHT22;7652;53.584;9.998;2023-06-14T04:30:47;15.70;99.90
15103;DHT22;7652;53.584;9.998;2023-06-14T04:34:08;15.70;99.90
15103;DHT22;7652;53.584;9.998;2023-06-14T04:37:36;15.80;99.90
15103;DHT22;7652;53.584;9.998;2023-06-14T04:41:00;15.90;99.90
15103;DHT22;7652;53.584;9.998;2023-06-14T04:44:23;16.00;99.90
15103;DHT22;7652;53.584;9.998;2023-06-14T04:47:51;16.00;99.90
15103;DHT22;7652;53.584;9.998;2023-06-14T04:51:17;16.10;99.90
15103;DHT22;7652;53.584;9.998;2023-06-14T04:54:40;16.10;99.90
15103;DHT22;7652;53.584;9.998;2023-06-14T04:58:02;16.20;99.90
15103;DHT22;7652;53.584;9.998;2023-06-14T05:01:25;16.30;99.90
15103;DHT22;7652;53.584;9.998;2023-06-14T05:04:48;16.40;99.90
15103;DHT22;7652;53.584;9.998;2023-06-14T05:08:09;16.50;99.90
15103;DHT22;7652;53.584;9.998;2023-06-14T05:11:31;16.50;99.90
15103;DHT22;7652;53.584;9.998;2023-06-14T05:14:52;16.60;99.90
15103;DHT22;7652;53.584;9.998;2023-06-14T05:18:14;16.70;99.90
15103;DHT22;7652;53.584;9.998;2023-06-14T05:21:37;16.70;99.90
15103;DHT22;7652;53.584;9.998;2023-06-14T05:25:03;16.90;99.90
15103;DHT22;7652;53.584;9.998;2023-06-14T05:28:25;17.10;99.90
15103;DHT22;7652;53.584;9.998;2023-06-14T05:31:46;17.20;99.90
15103;DHT22;7652;53.584;9.998;2023-06-14T05:35:08;17.30;99.90
15103;DHT22;7652;53.584;9.998;2023-06-14T05:38:32;17.40;99.90
15103;DHT22;7652;53.584;9.998;2023-06-14T05:41:53;17.60;99.90
15103;DHT22;7652;53.584;9.998;2023-06-14T05:45:15;18.10;99.90
15103;DHT22;7652;53.584;9.998;2023-06-14T05:48:37;18.60;99.90
15103;DHT22;7652;53.584;9.998;2023-06-14T05:51:58;19.00;99.90
15103;DHT22;7652;53.584;9.998;2023-06-14T05:55:21;19.40;99.90
15103;DHT22;7652;53.584;9.998;2023-06-14T05:58:43;19.80;99.90
15103;DHT22;7652;53.584;9.998;2023-06-14T06:02:04;20.30;99.90
15103;DHT22;7652;53.584;9.998;2023-06-14T06:05:26;20.60;99.90
15103;DHT22;7652;53.584;9.998;2023-06-14T06:08:47;21.00;99.90
15103;DHT22;7652;53.584;9.998;2023-06-14T06:12:10;21.40;99.90
15103;DHT22;7652;53.584;9.998;2023-06-14T06:15:32;21.80;99.90
15103;DHT22;7652;53.584;9.998;2023-06-14T06:18:53;22.20;99.90
15103;DHT22;7652;53.584;9.998;2023-06-14T06:22:15;22.50;99.90
15103;DHT22;7652;53.584;9.998;2023-06-14T06:25:37;22.40;99.90
15103;DHT22;7652;53.584;9.998;2023-06-14T06:28:59;22.90;99.90
15103;DHT22;7652;53.584;9.998;2023-06-14T06:32:21;23.10;99.90
15103;DHT22;7652;53.584;9.998;2023-06-14T06:35:43;23.50;99.90
15103;DHT22;7652;53.584;9.998;2023-06-14T06:39:04;23.90;99.90
15103;DHT22;7652;53.584;9.998;2023-06-14T06:42:30;24.20;99.90
15103;DHT22;7652;53.584;9.998;2023-06-14T06:45:53;24.60;99.90
15103;DHT22;7652;53.584;9.998;2023-06-14T06:49:14;24.70;99.90
15103;DHT22;7652;53.584;9.998;2023-06-14T06:52:35;24.60;99.70
15103;DHT22;7652;53.584;9.998;2023-06-14T06:55:57;23.80;99.90
15103;DHT22;7652;53.584;9.998;2023-06-14T06:59:18;24.20;99.90
15103;DHT22;7652;53.584;9.998;2023-06-14T07:02:41;24.60;99.90
15103;DHT22;7652;53.584;9.998;2023-06-14T07:06:03;24.20;99.70
15103;DHT22;7652;53.584;9.998;2023-06-14T07:09:24;23.30;99.90
15103;DHT22;7652;53.584;9.998;2023-06-14T07:12:47;23.00;99.90
15103;DHT22;7652;53.584;9.998;2023-06-14T07:16:09;22.70;99.90
15103;DHT22;7652;53.584;9.998;2023-06-14T07:19:33;22.50;99.90
15103;DHT22;7652;53.584;9.998;2023-06-14T07:22:55;22.50;99.90
15103;DHT22;7652;53.584;9.998;2023-06-14T07:26:17;22.20;99.90
15103;DHT22;7652;53.584;9.998;2023-06-14T07:29:40;22.30;99.90
15103;DHT22;7652;53.584;9.998;2023-06-14T07:33:01;22.40;99.90
15103;DHT22;7652;53.584;9.998;2023-06-14T07:36:24;22.30;99.90
15103;DHT22;7652;53.584;9.998;2023-06-14T07:39:46;22.20;99.90
15103;DHT22;7652;53.584;9.998;2023-06-14T07:43:07;22.00;99.90
15103;DHT22;7652;53.584;9.998;2023-06-14T07:46:29;22.10;99.90
15103;DHT22;7652;53.584;9.998;2023-06-14T07:49:50;22.20;99.90
15103;DHT22;7652;53.584;9.998;2023-06-14T07:53:13;22.00;99.90
15103;DHT22;7652;53.584;9.998;2023-06-14T07:56:34;22.30;99.90
15103;DHT22;7652;53.584;9.998;2023-06-14T07:59:57;22.40;99.90
15103;DHT22;7652;53.584;9.998;2023-06-14T08:03:18;22.40;99.90
15103;DHT22;7652;53.584;9.998;2023-06-14T08:06:40;22.60;99.90
15103;DHT22;7652;53.584;9.998;2023-06-14T08:10:07;22.60;99.90
15103;DHT22;7652;53.584;9.998;2023-06-14T08:13:28;22.60;99.90
15103;DHT22;7652;53.584;9.998;2023-06-14T08:16:50;22.70;99.90
15103;DHT22;7652;53.584;9.998;2023-06-14T08:20:12;22.70;99.90
15103;DHT22;7652;53.584;9.998;2023-06-14T08:23:36;22.70;99.90
15103;DHT22;7652;53.584;9.998;2023-06-14T08:26:59;22.70;99.90
15103;DHT22;7652;53.584;9.998;2023-06-14T08:30:21;22.60;99.90
15103;DHT22;7652;53.584;9.998;2023-06-14T08:33:43;22.70;99.90
15103;DHT22;7652;53.584;9.998;2023-06-14T08:37:06;22.90;99.90
15103;DHT22;7652;53.584;9.998;2023-06-14T08:40:30;22.90;99.90
15103;DHT22;7652;53.584;9.998;2023-06-14T08:43:52;22.90;99.90
15103;DHT22;7652;53.584;9.998;2023-06-14T08:47:14;22.70;99.90
15103;DHT22;7652;53.584;9.998;2023-06-14T08:50:40;22.70;99.90
15103;DHT22;7652;53.584;9.998;2023-06-14T08:54:03;22.80;99.90
15103;DHT22;7652;53.584;9.998;2023-06-14T08:57:25;23.00;99.90
15103;DHT22;7652;53.584;9.998;2023-06-14T09:00:52;23.20;99.90
15103;DHT22;7652;53.584;9.998;2023-06-14T09:04:13;23.20;99.90
15103;DHT22;7652;53.584;9.998;2023-06-14T09:07:36;23.20;99.90
15103;DHT22;7652;53.584;9.998;2023-06-14T09:11:01;23.30;99.90
15103;DHT22;7652;53.584;9.998;2023-06-14T09:14:24;23.40;99.90
15103;DHT22;7652;53.584;9.998;2023-06-14T09:17:47;23.40;99.90
15103;DHT22;7652;53.584;9.998;2023-06-14T09:21:10;23.50;99.80
15103;DHT22;7652;53.584;9.998;2023-06-14T09:24:32;23.60;99.90
15103;DHT22;7652;53.584;9.998;2023-06-14T09:27:54;23.70;99.20
15103;DHT22;7652;53.584;9.998;2023-06-14T09:31:17;23.70;98.90
15103;DHT22;7652;53.584;9.998;2023-06-14T09:34:40;23.70;98.80
15103;DHT22;7652;53.584;9.998;2023-06-14T09:38:01;23.60;99.70
15103;DHT22;7652;53.584;9.998;2023-06-14T09:41:30;23.50;99.60
15103;DHT22;7652;53.584;9.998;2023-06-14T09:44:53;23.60;99.90
15103;DHT22;7652;53.584;9.998;2023-06-14T09:48:15;23.70;99.90
15103;DHT22;7652;53.584;9.998;2023-06-14T09:51:43;23.70;99.90
15103;DHT22;7652;53.584;9.998;2023-06-14T09:55:12;23.80;99.40
15103;DHT22;7652;53.584;9.998;2023-06-14T09:58:37;24.10;99.10
15103;DHT22;7652;53.584;9.998;2023-06-14T10:02:05;24.10;98.80
15103;DHT22;7652;53.584;9.998;2023-06-14T10:05:29;24.20;98.50
15103;DHT22;7652;53.584;9.998;2023-06-14T10:08:55;24.30;98.70
15103;DHT22;7652;53.584;9.998;2023-06-14T10:12:17;24.40;98.50
15103;DHT22;7652;53.584;9.998;2023-06-14T10:15:52;24.30;98.30
15103;DHT22;7652;53.584;9.998;2023-06-14T10:19:18;24.30;98.50
15103;DHT22;7652;53.584;9.998;2023-06-14T10:22:45;24.40;98.20
15103;DHT22;7652;53.584;9.998;2023-06-14T10:26:18;24.60;98.10
15103;DHT22;7652;53.584;9.998;2023-06-14T10:30:05;24.80;97.90
15103;DHT22;7652;53.584;9.998;2023-06-14T10:33:26;24.80;97.80
15103;DHT22;7652;53.584;9.998;2023-06-14T10:37:00;24.80;97.50
15103;DHT22;7652;53.584;9.998;2023-06-14T10:40:32;24.90;97.20
15103;DHT22;7652;53.584;9.998;2023-06-14T10:47:50;24.70;97.50
15103;DHT22;7652;53.584;9.998;2023-06-14T10:51:18;24.60;97.40
15103;DHT22;7652;53.584;9.998;2023-06-14T10:58:37;24.70;97.80
15103;DHT22;7652;53.584;9.998;2023-06-14T11:02:06;24.60;97.50
15103;DHT22;7652;53.584;9.998;2023-06-14T11:05:48;24.50;97.50
15103;DHT22;7652;53.584;9.998;2023-06-14T11:13:01;24.20;97.40
15103;DHT22;7652;53.584;9.998;2023-06-14T11:16:26;24.40;97.50
15103;DHT22;7652;53.584;9.998;2023-06-14T11:19:47;24.30;97.10
15103;DHT22;7652;53.584;9.998;2023-06-14T11:23:10;24.50;97.70
15103;DHT22;7652;53.584;9.998;2023-06-14T11:26:31;24.80;96.50
15103;DHT22;7652;53.584;9.998;2023-06-14T11:29:54;25.00;96.40
15103;DHT22;7652;53.584;9.998;2023-06-14T11:33:19;25.10;95.70
15103;DHT22;7652;53.584;9.998;2023-06-14T11:36:41;25.00;95.90
15103;DHT22;7652;53.584;9.998;2023-06-14T11:40:07;24.70;96.40
15103;DHT22;7652;53.584;9.998;2023-06-14T11:43:30;24.70;96.90
15103;DHT22;7652;53.584;9.998;2023-06-14T11:46:53;24.80;96.50
15103;DHT22;7652;53.584;9.998;2023-06-14T11:50:17;24.90;97.00
15103;DHT22;7652;53.584;9.998;2023-06-14T11:53:42;25.00;96.40
15103;DHT22;7652;53.584;9.998;2023-06-14T11:57:06;25.10;96.30
15103;DHT22;7652;53.584;9.998;2023-06-14T12:00:27;25.20;96.20
15103;DHT22;7652;53.584;9.998;2023-06-14T12:03:50;25.20;96.00
15103;DHT22;7652;53.584;9.998;2023-06-14T12:07:13;25.40;96.70
15103;DHT22;7652;53.584;9.998;2023-06-14T12:10:42;25.30;96.30
15103;DHT22;7652;53.584;9.998;2023-06-14T12:14:06;25.40;96.50
15103;DHT22;7652;53.584;9.998;2023-06-14T12:17:32;25.80;94.80
15103;DHT22;7652;53.584;9.998;2023-06-14T12:20:53;26.00;94.40
15103;DHT22;7652;53.584;9.998;2023-06-14T12:24:16;26.60;93.80
15103;DHT22;7652;53.584;9.998;2023-06-14T12:27:39;27.50;93.40
15103;DHT22;7652;53.584;9.998;2023-06-14T12:31:02;27.90;92.20
15103;DHT22;7652;53.584;9.998;2023-06-14T12:34:25;28.40;91.10
15103;DHT22;7652;53.584;9.998;2023-06-14T12:37:47;28.60;89.70
15103;DHT22;7652;53.584;9.998;2023-06-14T12:41:08;28.70;90.00
15103;DHT22;7652;53.584;9.998;2023-06-14T12:44:30;28.80;89.70
15103;DHT22;7652;53.584;9.998;2023-06-14T12:47:55;30.00;88.00
15103;DHT22;7652;53.584;9.998;2023-06-14T12:51:16;30.40;85.40
15103;DHT22;7652;53.584;9.998;2023-06-14T12:54:38;31.30;81.10
15103;DHT22;7652;53.584;9.998;2023-06-14T12:58:01;31.00;78.00
15103;DHT22;7652;53.584;9.998;2023-06-14T13:01:22;30.80;78.70
15103;DHT22;7652;53.584;9.998;2023-06-14T13:04:45;30.70;77.90
15103;DHT22;7652;53.584;9.998;2023-06-14T13:08:07;30.00;79.00
15103;DHT22;7652;53.584;9.998;2023-06-14T13:11:29;29.70;79.10
15103;DHT22;7652;53.584;9.998;2023-06-14T13:14:51;29.50;80.30
15103;DHT22;7652;53.584;9.998;2023-06-14T13:18:13;29.50;79.90
15103;DHT22;7652;53.584;9.998;2023-06-14T13:21:36;29.60;79.60
15103;DHT22;7652;53.584;9.998;2023-06-14T13:24:58;29.00;79.90
15103;DHT22;7652;53.584;9.998;2023-06-14T13:28:19;28.80;79.80
15103;DHT22;7652;53.584;9.998;2023-06-14T13:31:41;28.40;80.90
15103;DHT22;7652;53.584;9.998;2023-06-14T13:35:04;28.10;82.70
15103;DHT22;7652;53.584;9.998;2023-06-14T13:38:27;27.90;84.60
15103;DHT22;7652;53.584;9.998;2023-06-14T13:41:48;27.80;85.20
15103;DHT22;7652;53.584;9.998;2023-06-14T13:45:11;27.20;84.40
15103;DHT22;7652;53.584;9.998;2023-06-14T13:48:33;26.90;84.50
15103;DHT22;7652;53.584;9.998;2023-06-14T13:51:54;26.70;84.70
15103;DHT22;7652;53.584;9.998;2023-06-14T13:55:17;26.50;85.30
15103;DHT22;7652;53.584;9.998;2023-06-14T13:58:38;26.50;85.20
15103;DHT22;7652;53.584;9.998;2023-06-14T14:02:00;26.40;85.40
15103;DHT22;7652;53.584;9.998;2023-06-14T14:05:22;26.30;86.40
15103;DHT22;7652;53.584;9.998;2023-06-14T14:08:48;26.10;85.70
15103;DHT22;7652;53.584;9.998;2023-06-14T14:12:11;25.90;86.50
15103;DHT22;7652;53.584;9.998;2023-06-14T14:15:33;26.00;86.70
15103;DHT22;7652;53.584;9.998;2023-06-14T14:18:55;26.10;85.80
15103;DHT22;7652;53.584;9.998;2023-06-14T14:22:17;26.20;85.90
15103;DHT22;7652;53.584;9.998;2023-06-14T14:25:38;26.20;84.80
15103;DHT22;7652;53.584;9.998;2023-06-14T14:29:01;26.40;86.40
15103;DHT22;7652;53.584;9.998;2023-06-14T14:32:22;26.40;84.20
15103;DHT22;7652;53.584;9.998;2023-06-14T14:35:44;26.30;85.30
15103;DHT22;7652;53.584;9.998;2023-06-14T14:39:07;26.20;84.80
15103;DHT22;7652;53.584;9.998;2023-06-14T14:42:29;25.90;85.10
15103;DHT22;7652;53.584;9.998;2023-06-14T14:45:51;25.60;85.40
15103;DHT22;7652;53.584;9.998;2023-06-14T14:49:13;25.30;86.10
15103;DHT22;7652;53.584;9.998;2023-06-14T14:52:35;25.40;86.40
15103;DHT22;7652;53.584;9.998;2023-06-14T14:55:56;25.40;87.30
15103;DHT22;7652;53.584;9.998;2023-06-14T14:59:17;25.50;86.30
15103;DHT22;7652;53.584;9.998;2023-06-14T15:02:43;25.60;85.50
15103;DHT22;7652;53.584;9.998;2023-06-14T15:06:05;25.60;84.90
15103;DHT22;7652;53.584;9.998;2023-06-14T15:09:26;25.80;85.20
15103;DHT22;7652;53.584;9.998;2023-06-14T15:12:47;25.80;84.90
15103;DHT22;7652;53.584;9.998;2023-06-14T15:16:09;25.70;84.60
15103;DHT22;7652;53.584;9.998;2023-06-14T15:19:32;25.80;84.70
15103;DHT22;7652;53.584;9.998;2023-06-14T15:22:54;25.60;84.60
15103;DHT22;7652;53.584;9.998;2023-06-14T15:26:19;25.50;84.80
15103;DHT22;7652;53.584;9.998;2023-06-14T15:29:41;25.40;85.10
15103;DHT22;7652;53.584;9.998;2023-06-14T15:33:03;25.50;84.60
15103;DHT22;7652;53.584;9.998;2023-06-14T15:36:26;25.50;84.60
15103;DHT22;7652;53.584;9.998;2023-06-14T15:39:48;25.50;83.30
15103;DHT22;7652;53.584;9.998;2023-06-14T15:43:10;25.40;83.80
15103;DHT22;7652;53.584;9.998;2023-06-14T15:46:31;25.40;84.10
15103;DHT22;7652;53.584;9.998;2023-06-14T15:49:52;25.40;84.00
15103;DHT22;7652;53.584;9.998;2023-06-14T15:53:16;25.40;84.50
15103;DHT22;7652;53.584;9.998;2023-06-14T15:56:37;25.30;84.40
15103;DHT22;7652;53.584;9.998;2023-06-14T15:59:58;25.30;84.20
15103;DHT22;7652;53.584;9.998;2023-06-14T16:03:20;25.20;84.30
15103;DHT22;7652;53.584;9.998;2023-06-14T16:06:42;25.20;84.60
15103;DHT22;7652;53.584;9.998;2023-06-14T16:10:06;25.20;84.70
15103;DHT22;7652;53.584;9.998;2023-06-14T16:13:28;25.10;83.90
15103;DHT22;7652;53.584;9.998;2023-06-14T16:16:49;25.00;84.70
15103;DHT22;7652;53.584;9.998;2023-06-14T16:20:13;24.80;85.10
15103;DHT22;7652;53.584;9.998;2023-06-14T16:23:34;24.70;84.80
15103;DHT22;7652;53.584;9.998;2023-06-14T16:26:57;24.70;85.00
15103;DHT22;7652;53.584;9.998;2023-06-14T16:30:18;24.50;85.40
15103;DHT22;7652;53.584;9.998;2023-06-14T16:33:40;24.50;86.20
15103;DHT22;7652;53.584;9.998;2023-06-14T16:37:02;24.50;85.00
15103;DHT22;7652;53.584;9.998;2023-06-14T16:40:25;24.50;85.20
15103;DHT22;7652;53.584;9.998;2023-06-14T16:43:48;24.30;85.20
15103;DHT22;7652;53.584;9.998;2023-06-14T16:47:10;24.20;84.80
15103;DHT22;7652;53.584;9.998;2023-06-14T16:50:32;24.10;85.20
15103;DHT22;7652;53.584;9.998;2023-06-14T16:53:56;24.10;84.70
15103;DHT22;7652;53.584;9.998;2023-06-14T16:57:18;24.10;85.00
15103;DHT22;7652;53.584;9.998;2023-06-14T17:00:40;24.00;84.50
15103;DHT22;7652;53.584;9.998;2023-06-14T17:04:02;23.90;85.20
15103;DHT22;7652;53.584;9.998;2023-06-14T17:07:23;23.90;85.10
15103;DHT22;7652;53.584;9.998;2023-06-14T17:10:45;23.90;85.00
15103;DHT22;7652;53.584;9.998;2023-06-14T17:14:06;23.80;85.10
15103;DHT22;7652;53.584;9.998;2023-06-14T17:17:29;23.80;85.30
15103;DHT22;7652;53.584;9.998;2023-06-14T17:20:51;23.70;85.30
15103;DHT22;7652;53.584;9.998;2023-06-14T17:24:13;23.70;85.10
15103;DHT22;7652;53.584;9.998;2023-06-14T17:27:45;23.60;84.60
15103;DHT22;7652;53.584;9.998;2023-06-14T17:31:07;23.50;84.10
15103;DHT22;7652;53.584;9.998;2023-06-14T17:34:30;23.50;84.40
15103;DHT22;7652;53.584;9.998;2023-06-14T17:37:52;23.40;83.90
15103;DHT22;7652;53.584;9.998;2023-06-14T17:41:17;23.40;84.50
15103;DHT22;7652;53.584;9.998;2023-06-14T17:44:39;23.40;83.80
15103;DHT22;7652;53.584;9.998;2023-06-14T17:48:00;23.30;83.30
15103;DHT22;7652;53.584;9.998;2023-06-14T17:51:24;23.30;83.50
15103;DHT22;7652;53.584;9.998;2023-06-14T17:54:45;23.20;82.10
15103;DHT22;7652;53.584;9.998;2023-06-14T17:58:06;23.20;81.00
15103;DHT22;7652;53.584;9.998;2023-06-14T18:01:28;23.10;81.50
15103;DHT22;7652;53.584;9.998;2023-06-14T18:04:50;23.00;81.40
15103;DHT22;7652;53.584;9.998;2023-06-14T18:08:14;23.00;81.90
15103;DHT22;7652;53.584;9.998;2023-06-14T18:11:35;23.00;82.40
15103;DHT22;7652;53.584;9.998;2023-06-14T18:14:57;22.90;82.50
15103;DHT22;7652;53.584;9.998;2023-06-14T18:18:19;22.90;81.90
15103;DHT22;7652;53.584;9.998;2023-06-14T18:21:40;22.80;81.20
15103;DHT22;7652;53.584;9.998;2023-06-14T18:25:03;22.70;81.20
15103;DHT22;7652;53.584;9.998;2023-06-14T18:28:24;22.70;81.20
15103;DHT22;7652;53.584;9.998;2023-06-14T18:31:45;22.60;81.30
15103;DHT22;7652;53.584;9.998;2023-06-14T18:35:08;22.50;82.00
15103;DHT22;7652;53.584;9.998;2023-06-14T18:38:29;22.40;82.30
15103;DHT22;7652;53.584;9.998;2023-06-14T18:41:52;22.30;83.10
15103;DHT22;7652;53.584;9.998;2023-06-14T18:45:13;22.30;82.90
15103;DHT22;7652;53.584;9.998;2023-06-14T18:48:35;22.30;82.60
15103;DHT22;7652;53.584;9.998;2023-06-14T18:51:57;22.20;82.70
15103;DHT22;7652;53.584;9.998;2023-06-14T18:55:19;22.20;83.50
15103;DHT22;7652;53.584;9.998;2023-06-14T18:58:43;22.10;83.30
15103;DHT22;7652;53.584;9.998;2023-06-14T19:02:05;22.00;83.30
15103;DHT22;7652;53.584;9.998;2023-06-14T19:05:27;21.90;84.10
15103;DHT22;7652;53.584;9.998;2023-06-14T19:08:48;21.90;83.80
15103;DHT22;7652;53.584;9.998;2023-06-14T19:12:10;21.80;84.20
15103;DHT22;7652;53.584;9.998;2023-06-14T19:15:33;21.70;84.30
15103;DHT22;7652;53.584;9.998;2023-06-14T19:18:55;21.70;85.40
15103;DHT22;7652;53.584;9.998;2023-06-14T19:22:17;21.60;85.40
15103;DHT22;7652;53.584;9.998;2023-06-14T19:25:38;21.50;85.70
15103;DHT22;7652;53.584;9.998;2023-06-14T19:28:59;21.40;86.10
15103;DHT22;7652;53.584;9.998;2023-06-14T19:32:22;21.20;87.00
15103;DHT22;7652;53.584;9.998;2023-06-14T19:35:44;21.10;88.20
15103;DHT22;7652;53.584;9.998;2023-06-14T19:39:05;21.10;88.10
15103;DHT22;7652;53.584;9.998;2023-06-14T19:42:27;21.00;88.50
15103;DHT22;7652;53.584;9.998;2023-06-14T19:45:48;21.00;89.30
15103;DHT22;7652;53.584;9.998;2023-06-14T19:49:11;20.90;89.70
15103;DHT22;7652;53.584;9.998;2023-06-14T19:52:33;20.80;90.20
15103;DHT22;7652;53.584;9.998;2023-06-14T19:55:54;20.70;90.40
15103;DHT22;7652;53.584;9.998;2023-06-14T19:59:15;20.70;90.50
15103;DHT22;7652;53.584;9.998;2023-06-14T20:02:37;20.60;90.80
15103;DHT22;7652;53.584;9.998;2023-06-14T20:06:00;20.60;91.20
15103;DHT22;7652;53.584;9.998;2023-06-14T20:09:21;20.50;91.20
15103;DHT22;7652;53.584;9.998;2023-06-14T20:12:44;20.40;91.40
15103;DHT22;7652;53.584;9.998;2023-06-14T20:16:06;20.40;91.90
15103;DHT22;7652;53.584;9.998;2023-06-14T20:19:28;20.30;92.00
15103;DHT22;7652;53.584;9.998;2023-06-14T20:22:51;20.20;92.10
15103;DHT22;7652;53.584;9.998;2023-06-14T20:26:12;20.20;92.80
15103;DHT22;7652;53.584;9.998;2023-06-14T20:29:34;20.20;92.70
15103;DHT22;7652;53.584;9.998;2023-06-14T20:32:56;20.10;92.60
15103;DHT22;7652;53.584;9.998;2023-06-14T20:36:17;20.00;93.10
15103;DHT22;7652;53.584;9.998;2023-06-14T20:39:41;20.00;93.60
15103;DHT22;7652;53.584;9.998;2023-06-14T20:43:02;20.00;93.50
15103;DHT22;7652;53.584;9.998;2023-06-14T20:46:26;20.00;94.20
15103;DHT22;7652;53.584;9.998;2023-06-14T20:49:49;20.00;94.20
15103;DHT22;7652;53.584;9.998;2023-06-14T20:53:11;19.90;94.00
15103;DHT22;7652;53.584;9.998;2023-06-14T20:56:33;19.70;94.00
15103;DHT22;7652;53.584;9.998;2023-06-14T20:59:55;19.50;94.20
15103;DHT22;7652;53.584;9.998;2023-06-14T21:03:16;19.50;95.70
15103;DHT22;7652;53.584;9.998;2023-06-14T21:06:38;19.60;95.30
15103;DHT22;7652;53.584;9.998;2023-06-14T21:10:01;19.60;95.00
15103;DHT22;7652;53.584;9.998;2023-06-14T21:13:24;19.40;95.00
15103;DHT22;7652;53.584;9.998;2023-06-14T21:16:45;19.40;95.50
15103;DHT22;7652;53.584;9.998;2023-06-14T21:20:07;19.30;95.60
15103;DHT22;7652;53.584;9.998;2023-06-14T21:23:29;19.20;96.20
15103;DHT22;7652;53.584;9.998;2023-06-14T21:26:50;19.20;96.70
15103;DHT22;7652;53.584;9.998;2023-06-14T21:30:15;19.20;96.30
15103;DHT22;7652;53.584;9.998;2023-06-14T21:33:37;19.10;96.60
15103;DHT22;7652;53.584;9.998;2023-06-14T21:36:59;19.00;96.80
15103;DHT22;7652;53.584;9.998;2023-06-14T21:40:20;18.90;97.10
15103;DHT22;7652;53.584;9.998;2023-06-14T21:43:42;18.70;97.60
15103;DHT22;7652;53.584;9.998;2023-06-14T21:47:05;18.70;97.90
15103;DHT22;7652;53.584;9.998;2023-06-14T21:50:26;18.50;98.20